Hlavní strana
METAR-TAF:

METAR-TAF

Letiště :

Tena, Ekvádor

zeměpisná šířka: 01-03-35S, zeměpisná délka: 77-35-00W, výška: 376 m

Aktuální stav počasí

Zpráva byla vytvořena před 9 hodinami a 35 minutami, v 23:00 UTC
Východní vítr 1 kt
Teplota 26°C
Vlhkost vzduchu 79%
Tlak 1012 hPa
Viditelnost 10 km a více
Polojasno ve výšce 2000 ft
Oblačno až skoro zataženo ve výšce 10000 ft

METAR: SEJD 292300Z 10001KT 9999 SCT020 BKN100 26/22 Q1012 RMK A2991

Čas: 03:35 (08:35 UTC)


TAF: chybějící

Stav a předpovědi počasí z více než 4 000 letišť (zprávy METAR a TAF).

Červené a žluté tečky na mapě představují dostupné meteorologické stanice.

Když kurzor umístíte na tečku, zobrazí se název stanice.

Pak kliknutím zobrazíte stav a předpověď počasí.

Chcete-li změnit mapu, kliknutím na zelené tlačítko se znaménkem +mapu přiblížíte, kliknutím na zelené tlačítko se znaménkem – mapu oddálíte a kliknutím na zelené šipky přejdete na sousední mapy.


METAR-TAF: